createdAt,value
2023-04-30T00:00:51.635Z,13
2023-04-30T00:01:58.609Z,14
2023-04-30T00:03:05.628Z,13
2023-04-30T00:04:12.429Z,14
2023-04-30T00:05:19.250Z,13
2023-04-30T00:06:28.202Z,12
2023-04-30T00:07:33.044Z,13
2023-04-30T00:08:39.921Z,13
2023-04-30T00:09:46.782Z,12
2023-04-30T00:10:53.661Z,12
2023-04-30T00:12:00.463Z,12
2023-04-30T00:13:07.324Z,14
2023-04-30T00:14:14.174Z,12
2023-04-30T00:15:21.111Z,13
2023-04-30T00:16:28.073Z,13
2023-04-30T00:17:34.840Z,11
2023-04-30T00:18:41.689Z,14
2023-04-30T00:19:48.539Z,13
2023-04-30T00:20:55.429Z,13
2023-04-30T00:22:02.301Z,12
2023-04-30T00:23:09.126Z,11
2023-04-30T00:24:15.956Z,13
2023-04-30T00:25:22.765Z,14
2023-04-30T00:26:29.624Z,12
2023-04-30T00:27:36.525Z,12
2023-04-30T00:28:43.231Z,12
2023-04-30T00:29:50.082Z,13
2023-04-30T00:30:56.947Z,13
2023-04-30T00:32:04.018Z,15
2023-04-30T00:33:10.779Z,14
2023-04-30T00:34:17.719Z,12
2023-04-30T00:35:24.505Z,13
2023-04-30T00:36:31.401Z,14
2023-04-30T00:37:38.246Z,14
2023-04-30T00:38:45.143Z,14
2023-04-30T00:39:52.023Z,14
2023-04-30T00:40:58.727Z,14
2023-04-30T00:42:05.567Z,14
2023-04-30T00:43:12.540Z,15
2023-04-30T00:44:19.354Z,16
2023-04-30T00:45:26.251Z,17
2023-04-30T00:46:33.105Z,14
2023-04-30T00:47:40.004Z,16
2023-04-30T00:48:46.998Z,15
2023-04-30T00:49:54.245Z,16
2023-04-30T00:51:00.773Z,14
2023-04-30T00:52:07.589Z,15
2023-04-30T00:53:14.380Z,18
2023-04-30T00:54:21.294Z,16
2023-04-30T00:55:28.059Z,18
2023-04-30T00:56:34.903Z,17
2023-04-30T00:57:41.745Z,17
2023-04-30T00:58:48.591Z,18
2023-04-30T00:59:55.704Z,17
2023-04-30T01:01:02.455Z,18
2023-04-30T01:02:09.271Z,16
2023-04-30T01:03:16.246Z,16
2023-04-30T01:04:22.866Z,18
2023-04-30T01:05:29.738Z,15
2023-04-30T01:06:36.588Z,14
2023-04-30T01:07:43.311Z,16
2023-04-30T01:08:50.028Z,18
2023-04-30T01:09:56.924Z,16
2023-04-30T01:11:03.674Z,15
2023-04-30T01:12:20.912Z,17
2023-04-30T01:13:38.929Z,17
2023-04-30T01:14:53.686Z,16
2023-04-30T01:16:05.752Z,16
2023-04-30T01:17:15.168Z,17
2023-04-30T01:18:30.257Z,17
2023-04-30T01:19:42.213Z,16
2023-04-30T01:20:48.981Z,16
2023-04-30T01:21:55.765Z,14
2023-04-30T01:23:02.794Z,14
2023-04-30T01:24:19.980Z,14
2023-04-30T01:25:31.985Z,13
2023-04-30T01:26:43.990Z,14
2023-04-30T01:27:56.020Z,14
2023-04-30T01:29:08.066Z,14
2023-04-30T01:30:14.924Z,13
2023-04-30T01:31:21.839Z,14
2023-04-30T01:32:28.619Z,12
2023-04-30T01:33:35.398Z,14
2023-04-30T01:34:42.290Z,13
2023-04-30T01:35:49.274Z,14
2023-04-30T01:37:01.233Z,12
2023-04-30T01:38:18.344Z,12
2023-04-30T01:39:28.362Z,12
2023-04-30T01:40:43.213Z,11
2023-04-30T01:41:59.487Z,12
2023-04-30T01:43:17.565Z,11
2023-04-30T01:44:35.280Z,11
2023-04-30T01:45:52.438Z,11
2023-04-30T01:47:04.477Z,10
2023-04-30T01:48:11.288Z,11
2023-04-30T01:49:25.793Z,11
2023-04-30T01:50:43.089Z,10
2023-04-30T01:51:52.883Z,12
2023-04-30T01:53:07.561Z,10
2023-04-30T01:54:14.404Z,10
2023-04-30T01:55:26.375Z,9
2023-04-30T01:56:33.182Z,10
2023-04-30T01:57:40.178Z,9
2023-04-30T01:58:46.977Z,9
2023-04-30T01:59:53.846Z,8
2023-04-30T02:01:00.510Z,7
2023-04-30T02:02:07.261Z,8
2023-04-30T02:03:14.245Z,8
2023-04-30T02:04:20.937Z,8
2023-04-30T02:05:27.691Z,7
2023-04-30T02:06:34.562Z,7
2023-04-30T02:07:41.468Z,7
2023-04-30T02:08:48.364Z,7
2023-04-30T02:09:55.331Z,7
2023-04-30T02:11:01.973Z,7
2023-04-30T02:12:08.799Z,6
2023-04-30T02:13:15.543Z,6
2023-04-30T02:14:22.382Z,5
2023-04-30T02:15:29.132Z,5
2023-04-30T02:16:35.921Z,5
2023-04-30T02:17:42.692Z,6
2023-04-30T02:18:49.480Z,5
2023-04-30T02:19:56.342Z,5
2023-04-30T02:21:03.104Z,6
2023-04-30T02:22:09.920Z,5
2023-04-30T02:23:16.688Z,5
2023-04-30T02:24:23.635Z,6
2023-04-30T02:25:30.528Z,6
2023-04-30T02:26:37.332Z,6
2023-04-30T02:27:44.194Z,6
2023-04-30T02:28:50.883Z,7
2023-04-30T02:29:57.677Z,8
2023-04-30T02:31:04.607Z,7
2023-04-30T02:32:11.466Z,7
2023-04-30T02:33:18.245Z,7
2023-04-30T02:34:25.156Z,7
2023-04-30T02:35:31.941Z,8
2023-04-30T02:36:38.734Z,9
2023-04-30T02:37:45.518Z,9
2023-04-30T02:38:52.276Z,10
2023-04-30T02:39:59.081Z,10
2023-04-30T02:41:06.001Z,10
2023-04-30T02:42:12.993Z,10
2023-04-30T02:43:19.809Z,10
2023-04-30T02:44:26.589Z,10
2023-04-30T02:45:33.424Z,9
2023-04-30T02:46:40.288Z,11
2023-04-30T02:47:47.172Z,10
2023-04-30T02:48:54.037Z,10
2023-04-30T02:50:01.023Z,11
2023-04-30T02:51:07.983Z,9
2023-04-30T02:52:14.767Z,11
2023-04-30T02:53:21.624Z,12
2023-04-30T02:54:28.500Z,11
2023-04-30T02:55:35.427Z,11
2023-04-30T02:56:42.260Z,10
2023-04-30T02:57:49.170Z,10
2023-04-30T02:58:56.100Z,11
2023-04-30T03:00:03.107Z,10
2023-04-30T03:01:10.615Z,12
2023-04-30T03:02:17.502Z,11
2023-04-30T03:03:24.318Z,10
2023-04-30T03:04:31.068Z,10
2023-04-30T03:05:37.820Z,10
2023-04-30T03:06:44.625Z,10
2023-04-30T03:07:51.392Z,10
2023-04-30T03:08:58.194Z,10
2023-04-30T03:10:05.086Z,9
2023-04-30T03:11:12.217Z,10
2023-04-30T03:12:19.038Z,11
2023-04-30T03:13:25.925Z,10
2023-04-30T03:14:32.753Z,10
2023-04-30T03:15:39.581Z,9
2023-04-30T03:16:46.425Z,10
2023-04-30T03:17:53.356Z,11
2023-04-30T03:19:00.207Z,11
2023-04-30T03:20:07.002Z,12
2023-04-30T03:21:14.095Z,11
2023-04-30T03:22:21.126Z,11
2023-04-30T03:23:27.923Z,10
2023-04-30T03:24:34.674Z,11
2023-04-30T03:25:41.490Z,10
2023-04-30T03:26:48.266Z,10
2023-04-30T03:27:55.080Z,9
2023-04-30T03:29:02.020Z,11
2023-04-30T03:30:08.879Z,11
2023-04-30T03:31:15.802Z,11
2023-04-30T03:32:22.569Z,11
2023-04-30T03:33:29.517Z,10
2023-04-30T03:34:36.529Z,11
2023-04-30T03:35:43.347Z,10
2023-04-30T03:36:50.160Z,11
2023-04-30T03:37:57.008Z,12
2023-04-30T03:39:03.815Z,11
2023-04-30T03:40:10.718Z,10
2023-04-30T03:41:17.482Z,9
2023-04-30T03:42:24.258Z,10
2023-04-30T03:43:31.018Z,11
2023-04-30T03:44:37.796Z,17
2023-04-30T03:45:44.917Z,11
2023-04-30T03:46:51.678Z,12
2023-04-30T03:47:58.523Z,11
2023-04-30T03:49:05.267Z,12
2023-04-30T03:50:12.124Z,10
2023-04-30T03:51:18.967Z,10
2023-04-30T03:52:25.781Z,10
2023-04-30T03:53:32.577Z,9
2023-04-30T03:54:39.414Z,11
2023-04-30T03:55:46.203Z,10
2023-04-30T03:56:53.231Z,10
2023-04-30T03:57:59.990Z,10
2023-04-30T03:59:06.874Z,11
2023-04-30T04:00:13.606Z,9
2023-04-30T04:01:20.420Z,13
2023-04-30T04:02:27.443Z,11
2023-04-30T04:03:34.163Z,10
2023-04-30T04:04:41.155Z,11
2023-04-30T04:05:48.051Z,11
2023-04-30T04:06:54.841Z,10
2023-04-30T04:08:01.688Z,10
2023-04-30T04:09:08.709Z,11
2023-04-30T04:10:15.568Z,9
2023-04-30T04:11:22.347Z,10
2023-04-30T04:12:29.112Z,10
2023-04-30T04:13:36.064Z,10
2023-04-30T04:14:42.980Z,10
2023-04-30T04:15:49.820Z,12
2023-04-30T04:16:56.530Z,11
2023-04-30T04:18:03.339Z,11
2023-04-30T04:19:10.194Z,11
2023-04-30T04:20:17.130Z,12
2023-04-30T04:21:23.916Z,10
2023-04-30T04:22:30.743Z,10
2023-04-30T04:23:37.504Z,10
2023-04-30T04:24:44.358Z,11
2023-04-30T04:25:51.235Z,10
2023-04-30T04:26:58.094Z,11
2023-04-30T04:28:04.936Z,10
2023-04-30T04:29:11.715Z,12
2023-04-30T04:30:18.564Z,11
2023-04-30T04:31:25.506Z,11
2023-04-30T04:32:32.329Z,12
2023-04-30T04:33:39.191Z,14
2023-04-30T04:34:45.915Z,12
2023-04-30T04:35:52.720Z,13
2023-04-30T04:36:59.674Z,12
2023-04-30T04:38:06.613Z,11
2023-04-30T04:39:13.426Z,11
2023-04-30T04:40:20.299Z,12
2023-04-30T04:41:27.056Z,11
2023-04-30T04:42:33.920Z,12
2023-04-30T04:43:40.783Z,11
2023-04-30T04:44:47.623Z,11
2023-04-30T04:45:54.434Z,11
2023-04-30T04:47:01.241Z,13
2023-04-30T04:48:08.252Z,11
2023-04-30T04:49:15.018Z,11
2023-04-30T04:50:21.871Z,11
2023-04-30T04:51:28.649Z,14
2023-04-30T04:52:35.386Z,12
2023-04-30T04:53:42.180Z,13
2023-04-30T04:54:49.173Z,11
2023-04-30T04:55:56.017Z,12
2023-04-30T04:57:02.938Z,11
2023-04-30T04:58:09.696Z,12
2023-04-30T04:59:16.523Z,12
2023-04-30T05:00:23.398Z,12
2023-04-30T05:01:31.160Z,11
2023-04-30T05:02:37.974Z,12
2023-04-30T05:03:44.946Z,13
2023-04-30T05:04:51.594Z,10
2023-04-30T05:05:58.570Z,13
2023-04-30T05:07:05.496Z,12
2023-04-30T05:08:12.247Z,13
2023-04-30T05:09:19.044Z,12
2023-04-30T05:10:25.900Z,13
2023-04-30T05:11:32.904Z,12
2023-04-30T05:12:39.806Z,11
2023-04-30T05:13:46.689Z,12
2023-04-30T05:14:53.515Z,12
2023-04-30T05:16:00.401Z,10
2023-04-30T05:17:07.371Z,12
2023-04-30T05:18:14.357Z,12
2023-04-30T05:19:21.243Z,11
2023-04-30T05:20:28.055Z,11
2023-04-30T05:21:35.066Z,10
2023-04-30T05:22:41.879Z,12
2023-04-30T05:23:48.958Z,13
2023-04-30T05:24:55.809Z,11
2023-04-30T05:26:02.682Z,16
2023-04-30T05:27:09.448Z,11
2023-04-30T05:28:16.214Z,10
2023-04-30T05:29:23.050Z,11
2023-04-30T05:30:29.895Z,14
2023-04-30T05:31:36.792Z,11
2023-04-30T05:32:44.222Z,12
2023-04-30T05:33:51.028Z,12
2023-04-30T05:34:57.896Z,12
2023-04-30T05:36:04.920Z,11
2023-04-30T05:37:11.742Z,11
2023-04-30T05:38:18.539Z,12
2023-04-30T05:39:25.381Z,14
2023-04-30T05:40:32.219Z,12
2023-04-30T05:41:39.074Z,12
2023-04-30T05:42:45.854Z,11
2023-04-30T05:43:52.668Z,12
2023-04-30T05:44:59.486Z,16
2023-04-30T05:46:06.717Z,11
2023-04-30T05:47:13.155Z,12
2023-04-30T05:48:20.058Z,13
2023-04-30T05:49:26.795Z,13
2023-04-30T05:50:33.629Z,12
2023-04-30T05:51:40.410Z,12
2023-04-30T05:52:47.336Z,13
2023-04-30T05:53:54.118Z,12
2023-04-30T05:55:01.014Z,15
2023-04-30T05:56:08.096Z,12
2023-04-30T05:57:15.079Z,11
2023-04-30T05:58:22.132Z,11
2023-04-30T05:59:29.161Z,10
2023-04-30T06:00:36.006Z,12
2023-04-30T06:01:42.849Z,11
2023-04-30T06:02:49.635Z,13
2023-04-30T06:03:56.494Z,11
2023-04-30T06:05:03.467Z,12
2023-04-30T06:06:13.261Z,11
2023-04-30T06:07:19.911Z,12
2023-04-30T06:08:26.677Z,12
2023-04-30T06:09:33.550Z,11
2023-04-30T06:10:40.432Z,11
2023-04-30T06:11:47.277Z,11
2023-04-30T06:12:54.077Z,10
2023-04-30T06:14:00.954Z,11
2023-04-30T06:15:07.756Z,11
2023-04-30T06:16:14.652Z,10
2023-04-30T06:17:21.635Z,11
2023-04-30T06:18:28.575Z,11
2023-04-30T06:19:35.429Z,11
2023-04-30T06:20:42.317Z,11
2023-04-30T06:21:49.225Z,13
2023-04-30T06:22:56.153Z,13
2023-04-30T06:24:03.052Z,12
2023-04-30T06:25:10.072Z,10
2023-04-30T06:26:17.010Z,11
2023-04-30T06:27:24.294Z,11
2023-04-30T06:28:31.213Z,10
2023-04-30T06:29:38.289Z,11
2023-04-30T06:30:45.043Z,11
2023-04-30T06:31:51.911Z,11
2023-04-30T06:32:58.757Z,12
2023-04-30T06:34:05.601Z,10
2023-04-30T06:35:12.598Z,11
2023-04-30T06:36:19.337Z,10
2023-04-30T06:37:26.244Z,11
2023-04-30T06:38:33.039Z,11
2023-04-30T06:39:39.988Z,10
2023-04-30T06:40:47.122Z,11
2023-04-30T06:41:53.918Z,11
2023-04-30T06:43:00.779Z,11
2023-04-30T06:44:07.568Z,12
2023-04-30T06:45:14.546Z,9
2023-04-30T06:46:21.505Z,11
2023-04-30T06:47:28.338Z,9
2023-04-30T06:48:37.868Z,11
2023-04-30T06:49:44.685Z,10
2023-04-30T06:50:51.577Z,9
2023-04-30T06:51:59.298Z,9
2023-04-30T06:53:06.327Z,10
2023-04-30T06:54:16.209Z,9
2023-04-30T06:55:23.001Z,10
2023-04-30T06:56:29.927Z,11
2023-04-30T06:57:36.850Z,12
2023-04-30T06:58:43.665Z,13
2023-04-30T06:59:50.606Z,10
2023-04-30T07:00:57.495Z,11
2023-04-30T07:02:04.343Z,10
2023-04-30T07:03:11.313Z,11
2023-04-30T07:04:18.126Z,10
2023-04-30T07:05:25.068Z,12
2023-04-30T07:06:31.917Z,11
2023-04-30T07:07:38.719Z,10
2023-04-30T07:08:45.482Z,11
2023-04-30T07:09:52.291Z,11
2023-04-30T07:10:59.142Z,9
2023-04-30T07:12:05.950Z,10
2023-04-30T07:13:12.742Z,9
2023-04-30T07:14:19.466Z,10
2023-04-30T07:15:26.249Z,11
2023-04-30T07:16:33.258Z,9
2023-04-30T07:17:39.912Z,9
2023-04-30T07:18:47.019Z,12
2023-04-30T07:19:53.926Z,12
2023-04-30T07:21:00.535Z,9
2023-04-30T07:22:07.381Z,9
2023-04-30T07:23:14.209Z,10
2023-04-30T07:24:21.085Z,12
2023-04-30T07:25:27.861Z,9
2023-04-30T07:26:34.644Z,11
2023-04-30T07:27:41.415Z,10
2023-04-30T07:28:48.318Z,8
2023-04-30T07:29:55.337Z,9
2023-04-30T07:31:01.948Z,10
2023-04-30T07:32:08.733Z,9
2023-04-30T07:33:15.608Z,9
2023-04-30T07:34:22.695Z,10
2023-04-30T07:35:29.469Z,11
2023-04-30T07:36:36.288Z,9
2023-04-30T07:37:43.077Z,9
2023-04-30T07:38:50.690Z,11
2023-04-30T07:39:57.900Z,8
2023-04-30T07:41:04.687Z,9
2023-04-30T07:42:11.461Z,10
2023-04-30T07:43:18.265Z,10
2023-04-30T07:44:25.019Z,10
2023-04-30T07:45:31.966Z,10
2023-04-30T07:46:38.976Z,9
2023-04-30T07:47:45.748Z,10
2023-04-30T07:48:52.523Z,10
2023-04-30T07:49:59.383Z,9
2023-04-30T07:51:06.278Z,9
2023-04-30T07:52:13.129Z,10
2023-04-30T07:53:19.988Z,9
2023-04-30T07:54:26.776Z,9
2023-04-30T07:55:33.521Z,9
2023-04-30T07:56:40.299Z,8
2023-04-30T07:57:47.294Z,9
2023-04-30T07:58:54.054Z,8
2023-04-30T08:00:00.799Z,10
2023-04-30T08:01:07.983Z,9
2023-04-30T08:02:14.776Z,9
2023-04-30T08:03:21.886Z,8
2023-04-30T08:04:28.638Z,12
2023-04-30T08:05:35.462Z,12
2023-04-30T08:06:42.395Z,10
2023-04-30T08:07:49.052Z,12
2023-04-30T08:08:55.916Z,10
2023-04-30T08:10:02.775Z,10
2023-04-30T08:11:10.045Z,9
2023-04-30T08:12:16.839Z,9
2023-04-30T08:13:23.617Z,10
2023-04-30T08:14:30.520Z,10
2023-04-30T08:15:37.426Z,9
2023-04-30T08:16:44.294Z,12
2023-04-30T08:17:51.169Z,10
2023-04-30T08:18:57.944Z,9
2023-04-30T08:20:04.792Z,10
2023-04-30T08:21:11.890Z,9
2023-04-30T08:22:18.726Z,9
2023-04-30T08:23:25.529Z,8
2023-04-30T08:24:32.322Z,8
2023-04-30T08:25:39.414Z,9
2023-04-30T08:26:46.535Z,9
2023-04-30T08:27:53.258Z,10
2023-04-30T08:29:00.098Z,9
2023-04-30T08:30:06.904Z,8
2023-04-30T08:31:14.009Z,8
2023-04-30T08:32:20.985Z,8
2023-04-30T08:33:27.688Z,9
2023-04-30T08:34:34.558Z,9
2023-04-30T08:35:41.356Z,9
2023-04-30T08:36:48.161Z,9
2023-04-30T08:37:55.008Z,9
2023-04-30T08:39:01.866Z,10
2023-04-30T08:40:08.868Z,7
2023-04-30T08:41:15.637Z,8
2023-04-30T08:42:22.401Z,9
2023-04-30T08:43:29.364Z,8
2023-04-30T08:44:36.148Z,8
2023-04-30T08:45:43.212Z,10
2023-04-30T08:46:50.146Z,8
2023-04-30T08:47:56.952Z,7
2023-04-30T08:49:03.860Z,9
2023-04-30T08:50:10.777Z,8
2023-04-30T08:51:17.568Z,8
2023-04-30T08:52:24.312Z,7
2023-04-30T08:53:31.096Z,7
2023-04-30T08:54:38.062Z,8
2023-04-30T08:55:44.871Z,8
2023-04-30T08:56:51.768Z,8
2023-04-30T08:57:58.530Z,8
2023-04-30T08:59:05.438Z,7
2023-04-30T09:00:12.207Z,8
2023-04-30T09:01:19.104Z,7
2023-04-30T09:02:25.919Z,8
2023-04-30T09:03:32.919Z,8
2023-04-30T09:04:39.601Z,10
2023-04-30T09:05:46.390Z,7
2023-04-30T09:06:53.187Z,8
2023-04-30T09:08:03.413Z,8
2023-04-30T09:09:06.893Z,7
2023-04-30T09:10:16.586Z,8
2023-04-30T09:11:23.405Z,9
2023-04-30T09:12:32.939Z,9
2023-04-30T09:13:39.613Z,8
2023-04-30T09:14:46.403Z,7
2023-04-30T09:16:03.692Z,8
2023-04-30T09:17:10.397Z,7
2023-04-30T09:18:17.281Z,6
2023-04-30T09:19:23.964Z,9
2023-04-30T09:20:30.944Z,7
2023-04-30T09:21:37.761Z,8
2023-04-30T09:22:44.566Z,7
2023-04-30T09:23:51.343Z,6
2023-04-30T09:24:58.137Z,6
2023-04-30T09:26:05.001Z,7
2023-04-30T09:27:11.822Z,7
2023-04-30T09:28:18.582Z,7
2023-04-30T09:29:25.460Z,7
2023-04-30T09:30:40.049Z,6
2023-04-30T09:31:47.048Z,8
2023-04-30T09:32:53.793Z,8
2023-04-30T09:34:00.690Z,8
2023-04-30T09:35:07.490Z,7
2023-04-30T09:36:22.408Z,6
2023-04-30T09:37:29.266Z,9
2023-04-30T09:38:38.704Z,8
2023-04-30T09:39:45.561Z,7
2023-04-30T09:40:57.569Z,7
2023-04-30T09:42:04.384Z,9
2023-04-30T09:43:11.193Z,8
2023-04-30T09:44:18.021Z,7
2023-04-30T09:45:33.219Z,8
2023-04-30T09:46:45.021Z,8
2023-04-30T09:47:52.876Z,9
2023-04-30T09:48:58.669Z,8
2023-04-30T09:50:05.538Z,8
2023-04-30T09:51:12.539Z,9
2023-04-30T09:52:19.391Z,7
2023-04-30T09:53:26.333Z,8
2023-04-30T09:54:33.204Z,8
2023-04-30T09:55:39.958Z,6
2023-04-30T09:56:46.723Z,7
2023-04-30T09:57:54.291Z,6
2023-04-30T09:59:01.410Z,6
2023-04-30T10:00:08.214Z,7
2023-04-30T10:01:15.390Z,7
2023-04-30T10:02:22.195Z,7
2023-04-30T10:03:28.997Z,6
2023-04-30T10:04:35.983Z,7
2023-04-30T10:05:42.824Z,6
2023-04-30T10:06:49.691Z,7
2023-04-30T10:07:56.498Z,6
2023-04-30T10:09:03.292Z,9
2023-04-30T10:10:10.178Z,8
2023-04-30T10:11:16.956Z,8
2023-04-30T10:12:23.815Z,7
2023-04-30T10:13:30.633Z,9
2023-04-30T10:14:45.558Z,7
2023-04-30T10:15:55.226Z,7
2023-04-30T10:17:02.264Z,7
2023-04-30T10:18:11.868Z,7
2023-04-30T10:19:23.817Z,8
2023-04-30T10:20:30.642Z,6
2023-04-30T10:21:37.450Z,7
2023-04-30T10:22:44.229Z,7
2023-04-30T10:23:51.175Z,8
2023-04-30T10:24:58.078Z,7
2023-04-30T10:26:04.908Z,7
2023-04-30T10:27:11.710Z,7
2023-04-30T10:28:18.531Z,7
2023-04-30T10:29:25.386Z,6
2023-04-30T10:30:32.161Z,6
2023-04-30T10:31:39.133Z,6
2023-04-30T10:32:45.962Z,7
2023-04-30T10:33:58.327Z,7
2023-04-30T10:35:10.336Z,7
2023-04-30T10:36:22.367Z,5
2023-04-30T10:37:29.184Z,7
2023-04-30T10:38:41.273Z,8
2023-04-30T10:39:48.069Z,5
2023-04-30T10:40:54.888Z,7
2023-04-30T10:42:01.659Z,6
2023-04-30T10:43:08.497Z,7
2023-04-30T10:44:15.404Z,6
2023-04-30T10:45:24.849Z,6
2023-04-30T10:46:39.832Z,7
2023-04-30T10:47:46.567Z,7
2023-04-30T10:48:53.390Z,7
2023-04-30T10:50:00.154Z,5
2023-04-30T10:51:07.082Z,6
2023-04-30T10:52:13.952Z,6
2023-04-30T10:53:20.719Z,7
2023-04-30T10:54:27.646Z,4
2023-04-30T10:55:34.495Z,5
2023-04-30T10:56:41.317Z,6
2023-04-30T10:57:48.141Z,5
2023-04-30T10:58:54.926Z,8
2023-04-30T11:00:01.785Z,7
2023-04-30T11:01:11.499Z,6
2023-04-30T11:02:18.239Z,6
2023-04-30T11:03:25.110Z,7
2023-04-30T11:04:31.997Z,5
2023-04-30T11:05:38.764Z,5
2023-04-30T11:06:45.753Z,4
2023-04-30T11:07:52.595Z,6
2023-04-30T11:08:59.578Z,5
2023-04-30T11:10:06.478Z,6
2023-04-30T11:11:13.231Z,5
2023-04-30T11:12:23.011Z,6
2023-04-30T11:13:32.765Z,7
2023-04-30T11:14:47.494Z,7
2023-04-30T11:15:54.296Z,6
2023-04-30T11:17:01.096Z,5
2023-04-30T11:18:07.926Z,7
2023-04-30T11:19:14.653Z,5
2023-04-30T11:20:21.478Z,5
2023-04-30T11:21:28.205Z,6
2023-04-30T11:22:35.108Z,5
2023-04-30T11:23:42.330Z,6
2023-04-30T11:24:49.007Z,7
2023-04-30T11:26:06.167Z,5
2023-04-30T11:27:12.942Z,5
2023-04-30T11:28:24.971Z,6
2023-04-30T11:29:31.815Z,5
2023-04-30T11:30:38.723Z,6
2023-04-30T11:31:45.565Z,5
2023-04-30T11:32:52.511Z,5
2023-04-30T11:33:59.348Z,6
2023-04-30T11:35:06.195Z,7
2023-04-30T11:36:13.049Z,6
2023-04-30T11:37:19.784Z,4
2023-04-30T11:38:36.975Z,5
2023-04-30T11:39:43.800Z,6
2023-04-30T11:40:51.003Z,5
2023-04-30T11:41:57.829Z,5
2023-04-30T11:43:04.618Z,6
2023-04-30T11:44:11.383Z,5
2023-04-30T11:45:26.165Z,5
2023-04-30T11:46:33.148Z,5
2023-04-30T11:47:39.910Z,6
2023-04-30T11:48:51.910Z,7
2023-04-30T11:49:58.696Z,5
2023-04-30T11:51:05.493Z,6
2023-04-30T11:52:20.481Z,6
2023-04-30T11:53:27.237Z,5
2023-04-30T11:54:34.005Z,7
2023-04-30T11:55:40.889Z,6
2023-04-30T11:56:47.717Z,5
2023-04-30T11:57:54.424Z,5
2023-04-30T11:59:01.236Z,5
2023-04-30T12:00:13.241Z,5
2023-04-30T12:01:20.179Z,4
2023-04-30T12:02:27.000Z,6
2023-04-30T12:03:33.869Z,5
2023-04-30T12:04:47.050Z,6
2023-04-30T12:05:53.860Z,5
2023-04-30T12:07:00.724Z,6
2023-04-30T12:08:07.502Z,5
2023-04-30T12:09:14.253Z,5
2023-04-30T12:10:21.009Z,7
2023-04-30T12:11:30.716Z,6
2023-04-30T12:12:37.508Z,5
2023-04-30T12:13:44.300Z,6
2023-04-30T12:14:59.170Z,6
2023-04-30T12:16:05.984Z,5
2023-04-30T12:17:12.880Z,6
2023-04-30T12:18:19.733Z,5
2023-04-30T12:19:26.543Z,6
2023-04-30T12:20:33.304Z,6
2023-04-30T12:21:40.150Z,5
2023-04-30T12:22:49.669Z,5
2023-04-30T12:23:56.410Z,6
2023-04-30T12:25:03.200Z,6
2023-04-30T12:26:15.413Z,5
2023-04-30T12:27:22.229Z,5
2023-04-30T12:28:29.050Z,6
2023-04-30T12:29:35.816Z,5
2023-04-30T12:30:42.657Z,4
2023-04-30T12:31:49.651Z,5
2023-04-30T12:32:56.496Z,5
2023-04-30T12:34:03.340Z,6
2023-04-30T12:35:10.120Z,5
2023-04-30T12:36:22.003Z,4
2023-04-30T12:37:33.919Z,5
2023-04-30T12:38:40.696Z,6
2023-04-30T12:39:47.488Z,5
2023-04-30T12:40:54.284Z,5
2023-04-30T12:42:01.109Z,5
2023-04-30T12:43:07.911Z,5
2023-04-30T12:44:14.697Z,5
2023-04-30T12:45:21.569Z,5
2023-04-30T12:46:38.834Z,6
2023-04-30T12:47:45.556Z,6
2023-04-30T12:48:52.292Z,6
2023-04-30T12:49:59.051Z,5
2023-04-30T12:51:05.847Z,5
2023-04-30T12:52:12.773Z,6
2023-04-30T12:53:19.503Z,7
2023-04-30T12:54:26.316Z,5
2023-04-30T12:55:33.111Z,4
2023-04-30T12:56:39.850Z,5
2023-04-30T12:57:56.906Z,6
2023-04-30T12:59:12.017Z,9
2023-04-30T13:00:19.056Z,9
2023-04-30T13:01:25.951Z,8
2023-04-30T13:02:32.786Z,8
2023-04-30T13:03:39.573Z,7
2023-04-30T13:04:46.250Z,7
2023-04-30T13:05:53.104Z,5
2023-04-30T13:06:59.841Z,12
2023-04-30T13:08:06.619Z,14
2023-04-30T13:09:13.430Z,13
2023-04-30T13:10:20.201Z,8
2023-04-30T13:11:27.659Z,6
2023-04-30T13:12:34.006Z,6
2023-04-30T13:13:40.772Z,6
2023-04-30T13:14:47.546Z,7
2023-04-30T13:15:54.368Z,5
2023-04-30T13:17:01.221Z,5
2023-04-30T13:18:08.060Z,4
2023-04-30T13:19:14.780Z,5
2023-04-30T13:20:21.592Z,10
2023-04-30T13:21:28.329Z,6
2023-04-30T13:22:35.108Z,7
2023-04-30T13:23:51.677Z,5
2023-04-30T13:24:48.628Z,5
2023-04-30T13:25:55.456Z,4
2023-04-30T13:27:02.286Z,4
2023-04-30T13:28:09.123Z,5
2023-04-30T13:29:15.944Z,6
2023-04-30T13:30:25.766Z,5
2023-04-30T13:31:32.648Z,5
2023-04-30T13:32:39.442Z,6
2023-04-30T13:33:46.209Z,5
2023-04-30T13:34:53.152Z,5
2023-04-30T13:36:01.018Z,6
2023-04-30T13:37:09.240Z,5
2023-04-30T13:38:15.993Z,40
2023-04-30T13:39:22.783Z,68
2023-04-30T13:40:29.548Z,34
2023-04-30T13:41:36.337Z,13
2023-04-30T13:42:43.174Z,6
2023-04-30T13:43:49.870Z,17
2023-04-30T13:44:56.609Z,26
2023-04-30T13:46:03.413Z,39
2023-04-30T13:47:10.324Z,29
2023-04-30T13:48:17.056Z,9
2023-04-30T13:49:23.998Z,8
2023-04-30T13:50:30.792Z,7
2023-04-30T13:51:37.594Z,8
2023-04-30T13:52:44.457Z,8
2023-04-30T13:53:51.323Z,6
2023-04-30T13:54:58.172Z,6
2023-04-30T13:56:04.929Z,7
2023-04-30T13:57:11.731Z,6
2023-04-30T13:58:18.580Z,7
2023-04-30T13:59:25.383Z,6
2023-04-30T14:00:32.313Z,53
2023-04-30T14:01:39.066Z,36
2023-04-30T14:02:45.959Z,58
2023-04-30T14:03:52.872Z,25
2023-04-30T14:05:05.603Z,7
2023-04-30T14:06:06.409Z,16
2023-04-30T14:07:13.190Z,12
2023-04-30T14:08:21.874Z,7
2023-04-30T14:09:26.763Z,7
2023-04-30T14:10:33.715Z,6
2023-04-30T14:11:40.495Z,6
2023-04-30T14:12:47.279Z,14
2023-04-30T14:13:54.089Z,8
2023-04-30T14:15:00.854Z,8
2023-04-30T14:16:08.089Z,11
2023-04-30T14:17:14.757Z,7
2023-04-30T14:18:21.542Z,9
2023-04-30T14:19:28.329Z,7
2023-04-30T14:20:35.449Z,7
2023-04-30T14:21:42.345Z,6
2023-04-30T14:22:49.081Z,6
2023-04-30T14:23:55.889Z,7
2023-04-30T14:25:02.650Z,6
2023-04-30T14:26:09.733Z,8
2023-04-30T14:27:16.616Z,6
2023-04-30T14:28:23.461Z,7
2023-04-30T14:29:30.272Z,5
2023-04-30T14:30:37.032Z,5
2023-04-30T14:31:43.825Z,5
2023-04-30T14:32:50.675Z,5
2023-04-30T14:33:57.479Z,6
2023-04-30T14:35:04.233Z,12
2023-04-30T14:36:11.158Z,22
2023-04-30T14:37:17.976Z,32
2023-04-30T14:38:24.953Z,40
2023-04-30T14:39:31.713Z,38
2023-04-30T14:40:38.519Z,67
2023-04-30T14:41:45.296Z,23
2023-04-30T14:42:52.102Z,10
2023-04-30T14:43:59.048Z,45
2023-04-30T14:45:05.850Z,33
2023-04-30T14:46:13.096Z,36
2023-04-30T14:47:19.800Z,6
2023-04-30T14:48:26.634Z,6
2023-04-30T14:49:33.454Z,7
2023-04-30T14:50:40.223Z,4
2023-04-30T14:51:47.034Z,5
2023-04-30T14:52:53.802Z,14
2023-04-30T14:54:00.628Z,17
2023-04-30T14:55:07.387Z,13
2023-04-30T14:56:14.218Z,8
2023-04-30T14:57:20.985Z,6
2023-04-30T14:58:27.801Z,6
2023-04-30T14:59:34.574Z,6
2023-04-30T15:00:41.515Z,6
2023-04-30T15:01:48.456Z,7
2023-04-30T15:02:55.203Z,6
2023-04-30T15:04:01.961Z,5
2023-04-30T15:05:08.780Z,6
2023-04-30T15:06:15.628Z,6
2023-04-30T15:07:22.351Z,5
2023-04-30T15:08:29.104Z,6
2023-04-30T15:09:35.847Z,5
2023-04-30T15:10:42.592Z,6
2023-04-30T15:11:49.561Z,6
2023-04-30T15:12:59.336Z,6
2023-04-30T15:14:06.158Z,7
2023-04-30T15:15:12.981Z,7
2023-04-30T15:16:19.852Z,6
2023-04-30T15:17:26.516Z,7
2023-04-30T15:18:33.265Z,9
2023-04-30T15:19:40.216Z,9
2023-04-30T15:20:46.957Z,6
2023-04-30T15:21:53.748Z,6
2023-04-30T15:23:00.459Z,6
2023-04-30T15:24:07.253Z,5
2023-04-30T15:25:14.198Z,6
2023-04-30T15:26:20.964Z,8
2023-04-30T15:27:27.736Z,7
2023-04-30T15:28:34.512Z,6
2023-04-30T15:29:41.235Z,6
2023-04-30T15:30:48.049Z,7
2023-04-30T15:31:54.928Z,5
2023-04-30T15:33:01.762Z,6
2023-04-30T15:34:08.538Z,5
2023-04-30T15:35:15.339Z,4
2023-04-30T15:36:22.085Z,8
2023-04-30T15:37:28.872Z,8
2023-04-30T15:38:35.747Z,6
2023-04-30T15:39:42.484Z,6
2023-04-30T15:40:49.224Z,5
2023-04-30T15:41:56.060Z,6
2023-04-30T15:43:02.829Z,7
2023-04-30T15:44:09.634Z,5
2023-04-30T15:45:16.402Z,6
2023-04-30T15:46:23.224Z,4
2023-04-30T15:47:30.041Z,6
2023-04-30T15:48:36.779Z,6
2023-04-30T15:49:43.646Z,5
2023-04-30T15:50:50.403Z,8
2023-04-30T15:51:57.206Z,12
2023-04-30T15:53:04.112Z,6
2023-04-30T15:54:10.933Z,6
2023-04-30T15:55:17.756Z,6
2023-04-30T15:56:24.559Z,6
2023-04-30T15:57:31.320Z,6
2023-04-30T15:58:38.218Z,6
2023-04-30T15:59:45.013Z,12
2023-04-30T16:00:51.820Z,7
2023-04-30T16:01:58.674Z,6
2023-04-30T16:03:05.523Z,7
2023-04-30T16:04:12.286Z,8
2023-04-30T16:05:19.105Z,18
2023-04-30T16:06:25.944Z,14
2023-04-30T16:07:32.727Z,8
2023-04-30T16:08:39.496Z,7
2023-04-30T16:09:46.419Z,9
2023-04-30T16:10:53.182Z,11
2023-04-30T16:12:00.020Z,8
2023-04-30T16:13:06.867Z,7
2023-04-30T16:14:13.684Z,5
2023-04-30T16:15:20.560Z,7
2023-04-30T16:16:28.029Z,6
2023-04-30T16:17:34.227Z,11
2023-04-30T16:18:40.965Z,11
2023-04-30T16:19:47.720Z,9